sensor_id;sensor_type;location;lat;lon;timestamp;pressure;altitude;pressure_sealevel;temperature;humidity
68580;BME280;55555;52.136;5.424;2023-01-15T00:02:21;99964.84;;;6.18;100.00
68580;BME280;55555;52.136;5.424;2023-01-15T00:04:51;99962.22;;;6.18;100.00
68580;BME280;55555;52.136;5.424;2023-01-15T00:07:18;99960.47;;;6.17;100.00
68580;BME280;55555;52.136;5.424;2023-01-15T00:09:46;99960.44;;;6.19;100.00
68580;BME280;55555;52.136;5.424;2023-01-15T00:12:13;99960.56;;;6.16;100.00
68580;BME280;55555;52.136;5.424;2023-01-15T00:14:40;99967.50;;;6.18;100.00
68580;BME280;55555;52.136;5.424;2023-01-15T00:17:07;99972.66;;;6.23;100.00
68580;BME280;55555;52.136;5.424;2023-01-15T00:19:34;99970.00;;;6.23;100.00
68580;BME280;55555;52.136;5.424;2023-01-15T00:22:01;99966.59;;;6.19;100.00
68580;BME280;55555;52.136;5.424;2023-01-15T00:24:28;99962.13;;;6.21;99.72
68580;BME280;55555;52.136;5.424;2023-01-15T00:27:14;99959.56;;;6.18;100.00
68580;BME280;55555;52.136;5.424;2023-01-15T00:30:00;99964.00;;;6.18;100.00
68580;BME280;55555;52.136;5.424;2023-01-15T00:32:27;99961.31;;;6.19;100.00
68580;BME280;55555;52.136;5.424;2023-01-15T00:34:57;99954.25;;;6.20;100.00
68580;BME280;55555;52.136;5.424;2023-01-15T00:37:25;99965.72;;;6.19;100.00
68580;BME280;55555;52.136;5.424;2023-01-15T00:39:52;99955.97;;;6.21;100.00
68580;BME280;55555;52.136;5.424;2023-01-15T00:42:19;99951.56;;;6.21;100.00
68580;BME280;55555;52.136;5.424;2023-01-15T00:44:47;99965.75;;;6.17;100.00
68580;BME280;55555;52.136;5.424;2023-01-15T00:47:14;99955.16;;;6.19;100.00
68580;BME280;55555;52.136;5.424;2023-01-15T00:49:42;99961.31;;;6.19;100.00
68580;BME280;55555;52.136;5.424;2023-01-15T00:52:10;99960.44;;;6.19;100.00
68580;BME280;55555;52.136;5.424;2023-01-15T00:54:37;99968.41;;;6.17;100.00
68580;BME280;55555;52.136;5.424;2023-01-15T00:57:04;99951.59;;;6.20;100.00
68580;BME280;55555;52.136;5.424;2023-01-15T00:59:31;99964.84;;;6.18;100.00
68580;BME280;55555;52.136;5.424;2023-01-15T01:01:58;99961.19;;;6.24;99.15
68580;BME280;55555;52.136;5.424;2023-01-15T01:04:26;99965.69;;;6.20;100.00
68580;BME280;55555;52.136;5.424;2023-01-15T01:06:53;99958.72;;;6.18;100.00
68580;BME280;55555;52.136;5.424;2023-01-15T01:09:21;99966.63;;;6.18;99.59
68580;BME280;55555;52.136;5.424;2023-01-15T01:11:48;99959.63;;;6.17;99.92
68580;BME280;55555;52.136;5.424;2023-01-15T01:14:15;99957.81;;;6.19;100.00
68580;BME280;55555;52.136;5.424;2023-01-15T01:16:43;99956.06;;;6.18;99.68
68580;BME280;55555;52.136;5.424;2023-01-15T01:19:14;99954.34;;;6.17;100.00
68580;BME280;55555;52.136;5.424;2023-01-15T01:21:44;99950.00;;;6.16;99.73
68580;BME280;55555;52.136;5.424;2023-01-15T01:24:15;99959.50;;;6.21;99.90
68580;BME280;55555;52.136;5.424;2023-01-15T01:26:46;99966.47;;;6.24;99.12
68580;BME280;55555;52.136;5.424;2023-01-15T01:29:19;99976.22;;;6.22;99.21
68580;BME280;55555;52.136;5.424;2023-01-15T01:31:47;99976.28;;;6.19;99.36
68580;BME280;55555;52.136;5.424;2023-01-15T01:34:17;99965.59;;;6.23;98.84
68580;BME280;55555;52.136;5.424;2023-01-15T01:36:44;99963.09;;;6.19;98.99
68580;BME280;55555;52.136;5.424;2023-01-15T01:39:14;99964.00;;;6.18;99.14
68580;BME280;55555;52.136;5.424;2023-01-15T01:41:44;99978.19;;;6.15;99.02
68580;BME280;55555;52.136;5.424;2023-01-15T01:47:03;99972.97;;;6.12;99.82
68580;BME280;55555;52.136;5.424;2023-01-15T01:49:33;99979.16;;;6.11;99.99
68580;BME280;55555;52.136;5.424;2023-01-15T01:52:06;99990.56;;;6.13;98.27
68580;BME280;55555;52.136;5.424;2023-01-15T01:54:35;99986.19;;;6.12;99.23
68580;BME280;55555;52.136;5.424;2023-01-15T01:57:04;99994.09;;;6.12;98.37
68580;BME280;55555;52.136;5.424;2023-01-15T01:59:33;99989.81;;;6.08;98.48
68580;BME280;55555;52.136;5.424;2023-01-15T02:02:01;99988.91;;;6.09;99.57
68580;BME280;55555;52.136;5.424;2023-01-15T02:04:30;99988.09;;;6.07;99.52
68580;BME280;55555;52.136;5.424;2023-01-15T02:06:59;99982.81;;;6.07;99.15
68580;BME280;55555;52.136;5.424;2023-01-15T02:09:27;99981.84;;;6.10;98.27
68580;BME280;55555;52.136;5.424;2023-01-15T02:11:57;99971.44;;;6.05;98.56
68580;BME280;55555;52.136;5.424;2023-01-15T02:14:46;99969.63;;;6.06;98.34
68580;BME280;55555;52.136;5.424;2023-01-15T02:17:43;99969.72;;;6.04;99.01
68580;BME280;55555;52.136;5.424;2023-01-15T02:20:24;99956.63;;;6.00;99.27
68580;BME280;55555;52.136;5.424;2023-01-15T02:23:04;99970.75;;;5.99;100.00
68580;BME280;55555;52.136;5.424;2023-01-15T02:28:39;99960.19;;;5.99;98.89
68580;BME280;55555;52.136;5.424;2023-01-15T02:31:21;99968.19;;;5.96;100.00
68580;BME280;55555;52.136;5.424;2023-01-15T02:34:04;99975.25;;;5.95;99.36
68580;BME280;55555;52.136;5.424;2023-01-15T02:36:39;99961.13;;;5.96;98.00
68580;BME280;55555;52.136;5.424;2023-01-15T02:39:18;99967.28;;;5.97;97.72
68580;BME280;55555;52.136;5.424;2023-01-15T02:41:49;99972.59;;;5.95;99.13
68580;BME280;55555;52.136;5.424;2023-01-15T02:44:21;99975.34;;;5.92;98.10
68580;BME280;55555;52.136;5.424;2023-01-15T02:46:54;99977.09;;;5.93;98.88
68580;BME280;55555;52.136;5.424;2023-01-15T02:49:24;99975.44;;;5.89;98.99
68580;BME280;55555;52.136;5.424;2023-01-15T02:52:00;99965.78;;;5.86;98.71
68580;BME280;55555;52.136;5.424;2023-01-15T02:54:47;99970.06;;;5.92;98.11
68580;BME280;55555;52.136;5.424;2023-01-15T02:57:18;99966.59;;;5.90;97.88
68580;BME280;55555;52.136;5.424;2023-01-15T02:59:55;99966.66;;;5.89;97.50
68580;BME280;55555;52.136;5.424;2023-01-15T03:02:28;99962.28;;;5.86;98.56
68580;BME280;55555;52.136;5.424;2023-01-15T03:05:07;99961.47;;;5.84;98.57
68580;BME280;55555;52.136;5.424;2023-01-15T03:07:47;99965.06;;;5.81;98.84
68580;BME280;55555;52.136;5.424;2023-01-15T03:10:17;99951.00;;;5.81;98.62
68580;BME280;55555;52.136;5.424;2023-01-15T03:12:49;99952.75;;;5.82;98.56
68580;BME280;55555;52.136;5.424;2023-01-15T03:19:28;99959.69;;;5.84;96.85
68580;BME280;55555;52.136;5.424;2023-01-15T03:22:09;99958.84;;;5.84;97.20
68580;BME280;55555;52.136;5.424;2023-01-15T03:24:56;99961.56;;;5.81;97.94
68580;BME280;55555;52.136;5.424;2023-01-15T03:27:36;99963.38;;;5.79;98.53
68580;BME280;55555;52.136;5.424;2023-01-15T03:32:39;99960.50;;;5.86;97.02
68580;BME280;55555;52.136;5.424;2023-01-15T03:38:22;99959.88;;;5.78;98.09
68580;BME280;55555;52.136;5.424;2023-01-15T03:44:26;99948.53;;;5.75;98.91
68580;BME280;55555;52.136;5.424;2023-01-15T03:47:12;99955.66;;;5.73;98.67
68580;BME280;55555;52.136;5.424;2023-01-15T03:55:42;99969.97;;;5.63;96.88
68580;BME280;55555;52.136;5.424;2023-01-15T03:58:26;99960.25;;;5.65;97.99
68580;BME280;55555;52.136;5.424;2023-01-15T04:00:58;99952.38;;;5.63;98.27
68580;BME280;55555;52.136;5.424;2023-01-15T04:03:29;99949.00;;;5.60;97.51
68580;BME280;55555;52.136;5.424;2023-01-15T04:06:00;99950.72;;;5.61;96.05
68580;BME280;55555;52.136;5.424;2023-01-15T04:08:32;99954.97;;;5.65;96.59
68580;BME280;55555;52.136;5.424;2023-01-15T04:11:04;99940.97;;;5.63;97.11
68580;BME280;55555;52.136;5.424;2023-01-15T04:13:38;99952.38;;;5.63;98.46
68580;BME280;55555;52.136;5.424;2023-01-15T04:16:10;99947.19;;;5.62;96.51
68580;BME280;55555;52.136;5.424;2023-01-15T04:18:37;99942.81;;;5.61;97.06
68580;BME280;55555;52.136;5.424;2023-01-15T04:21:04;99949.94;;;5.57;97.40
68580;BME280;55555;52.136;5.424;2023-01-15T04:23:33;99955.25;;;5.56;97.52
68580;BME280;55555;52.136;5.424;2023-01-15T04:26:01;99948.16;;;5.58;99.50
68580;BME280;55555;52.136;5.424;2023-01-15T04:28:28;99950.72;;;5.61;98.69
68580;BME280;55555;52.136;5.424;2023-01-15T04:30:56;99942.84;;;5.59;98.65
68580;BME280;55555;52.136;5.424;2023-01-15T04:33:25;99943.72;;;5.60;97.81
68580;BME280;55555;52.136;5.424;2023-01-15T04:35:52;99942.81;;;5.61;98.05
68580;BME280;55555;52.136;5.424;2023-01-15T04:38:19;99933.97;;;5.62;96.78
68580;BME280;55555;52.136;5.424;2023-01-15T04:40:46;99944.28;;;5.71;94.76
68580;BME280;55555;52.136;5.424;2023-01-15T04:43:32;99941.66;;;5.69;97.47
68580;BME280;55555;52.136;5.424;2023-01-15T04:46:23;99939.06;;;5.68;97.07
68580;BME280;55555;52.136;5.424;2023-01-15T04:48:50;99944.44;;;5.65;97.46
68580;BME280;55555;52.136;5.424;2023-01-15T04:51:18;99946.16;;;5.66;96.34
68580;BME280;55555;52.136;5.424;2023-01-15T04:53:45;99928.63;;;5.63;96.85
68580;BME280;55555;52.136;5.424;2023-01-15T04:56:12;99934.69;;;5.67;95.21
68580;BME280;55555;52.136;5.424;2023-01-15T04:58:39;99943.66;;;5.61;95.70
68580;BME280;55555;52.136;5.424;2023-01-15T05:01:15;99944.53;;;5.62;95.65
68580;BME280;55555;52.136;5.424;2023-01-15T05:03:42;99939.34;;;5.59;97.03
68580;BME280;55555;52.136;5.424;2023-01-15T05:06:10;99940.25;;;5.58;96.91
68580;BME280;55555;52.136;5.424;2023-01-15T05:08:39;99944.63;;;5.59;97.27
68580;BME280;55555;52.136;5.424;2023-01-15T05:11:07;99942.06;;;5.56;97.08
68580;BME280;55555;52.136;5.424;2023-01-15T05:13:34;99952.69;;;5.53;96.67
68580;BME280;55555;52.136;5.424;2023-01-15T05:16:15;99944.69;;;5.56;97.18
68580;BME280;55555;52.136;5.424;2023-01-15T05:18:45;99940.22;;;5.59;97.08
68580;BME280;55555;52.136;5.424;2023-01-15T05:23:49;99938.50;;;5.57;97.55
68580;BME280;55555;52.136;5.424;2023-01-15T05:26:18;99926.97;;;5.61;95.83
68580;BME280;55555;52.136;5.424;2023-01-15T05:28:47;99924.38;;;5.59;96.21
68580;BME280;55555;52.136;5.424;2023-01-15T05:31:17;99931.34;;;5.62;95.41
68580;BME280;55555;52.136;5.424;2023-01-15T05:33:46;99934.94;;;5.59;96.34
68580;BME280;55555;52.136;5.424;2023-01-15T05:36:16;99926.09;;;5.60;96.95
68580;BME280;55555;52.136;5.424;2023-01-15T05:38:46;99933.19;;;5.58;97.00
68580;BME280;55555;52.136;5.424;2023-01-15T05:41:16;99926.25;;;5.54;98.38
68580;BME280;55555;52.136;5.424;2023-01-15T05:44:05;99922.91;;;5.49;97.69
68580;BME280;55555;52.136;5.424;2023-01-15T05:46:36;99918.56;;;5.46;97.61
68580;BME280;55555;52.136;5.424;2023-01-15T05:49:11;99924.69;;;5.48;96.78
68580;BME280;55555;52.136;5.424;2023-01-15T05:51:41;99917.63;;;5.49;97.20
68580;BME280;55555;52.136;5.424;2023-01-15T05:54:13;99928.25;;;5.46;96.58
68580;BME280;55555;52.136;5.424;2023-01-15T05:56:41;99930.94;;;5.44;97.06
68580;BME280;55555;52.136;5.424;2023-01-15T05:59:08;99933.56;;;5.44;97.69
68580;BME280;55555;52.136;5.424;2023-01-15T06:01:36;99935.44;;;5.41;96.73
68580;BME280;55555;52.136;5.424;2023-01-15T06:04:05;99932.75;;;5.42;97.55
68580;BME280;55555;52.136;5.424;2023-01-15T06:06:33;99932.91;;;5.38;96.05
68580;BME280;55555;52.136;5.424;2023-01-15T06:09:02;99924.94;;;5.39;96.48
68580;BME280;55555;52.136;5.424;2023-01-15T06:11:30;99936.41;;;5.38;97.38
68580;BME280;55555;52.136;5.424;2023-01-15T06:13:58;99924.88;;;5.41;97.37
68580;BME280;55555;52.136;5.424;2023-01-15T06:16:25;99929.31;;;5.40;97.75
68580;BME280;55555;52.136;5.424;2023-01-15T06:18:52;99921.47;;;5.37;97.14
68580;BME280;55555;52.136;5.424;2023-01-15T06:21:19;99938.94;;;5.41;97.83
68580;BME280;55555;52.136;5.424;2023-01-15T06:23:47;99942.56;;;5.37;96.87
68580;BME280;55555;52.136;5.424;2023-01-15T06:26:16;99942.56;;;5.37;96.95
68580;BME280;55555;52.136;5.424;2023-01-15T06:28:44;99955.84;;;5.34;96.55
68580;BME280;55555;52.136;5.424;2023-01-15T06:31:16;99961.06;;;5.36;96.85
68580;BME280;55555;52.136;5.424;2023-01-15T06:33:45;99976.22;;;5.29;96.48
68580;BME280;55555;52.136;5.424;2023-01-15T06:36:18;99972.00;;;5.22;95.26
68580;BME280;55555;52.136;5.424;2023-01-15T06:38:47;99964.97;;;5.21;95.68
68580;BME280;55555;52.136;5.424;2023-01-15T06:41:17;99964.38;;;5.11;96.35
68580;BME280;55555;52.136;5.424;2023-01-15T06:44:03;99956.59;;;5.07;96.92
68580;BME280;55555;52.136;5.424;2023-01-15T06:46:50;99964.72;;;4.98;96.49
68580;BME280;55555;52.136;5.424;2023-01-15T06:49:36;99956.03;;;4.94;96.62
68580;BME280;55555;52.136;5.424;2023-01-15T06:52:04;99963.22;;;4.88;96.17
68580;BME280;55555;52.136;5.424;2023-01-15T06:54:32;99965.06;;;4.86;94.84
68580;BME280;55555;52.136;5.424;2023-01-15T06:56:59;99952.81;;;4.83;95.00
68580;BME280;55555;52.136;5.424;2023-01-15T06:59:26;99953.75;;;4.81;97.17
68580;BME280;55555;52.136;5.424;2023-01-15T07:01:54;99946.09;;;4.70;95.32
68580;BME280;55555;52.136;5.424;2023-01-15T07:04:21;99954.03;;;4.68;96.70
68580;BME280;55555;52.136;5.424;2023-01-15T07:06:48;99956.72;;;4.67;97.63
68580;BME280;55555;52.136;5.424;2023-01-15T07:09:15;99959.53;;;4.59;97.30
68580;BME280;55555;52.136;5.424;2023-01-15T07:11:42;99963.03;;;4.60;97.84
68580;BME280;55555;52.136;5.424;2023-01-15T07:14:17;99965.78;;;4.55;96.31
68580;BME280;55555;52.136;5.424;2023-01-15T07:16:46;99958.72;;;4.57;98.53
68580;BME280;55555;52.136;5.424;2023-01-15T07:19:14;99965.78;;;4.55;97.00
68580;BME280;55555;52.136;5.424;2023-01-15T07:21:42;99953.56;;;4.53;98.14
68580;BME280;55555;52.136;5.424;2023-01-15T07:24:10;99952.75;;;4.51;95.44
68580;BME280;55555;52.136;5.424;2023-01-15T07:26:38;99959.78;;;4.50;97.37
68580;BME280;55555;52.136;5.424;2023-01-15T07:29:05;99965.06;;;4.49;97.59
68580;BME280;55555;52.136;5.424;2023-01-15T07:31:32;99957.13;;;4.50;97.09
68580;BME280;55555;52.136;5.424;2023-01-15T07:33:59;99951.09;;;4.45;96.33
68580;BME280;55555;52.136;5.424;2023-01-15T07:36:27;99965.97;;;4.48;96.63
68580;BME280;55555;52.136;5.424;2023-01-15T07:38:54;99957.31;;;4.43;96.71
68580;BME280;55555;52.136;5.424;2023-01-15T07:41:21;99965.25;;;4.41;97.76
68580;BME280;55555;52.136;5.424;2023-01-15T07:44:10;99957.25;;;4.44;96.13
68580;BME280;55555;52.136;5.424;2023-01-15T07:46:56;99972.13;;;4.47;94.96
68580;BME280;55555;52.136;5.424;2023-01-15T07:49:43;99960.00;;;4.41;97.38
68580;BME280;55555;52.136;5.424;2023-01-15T07:52:19;99953.81;;;4.42;96.11
68580;BME280;55555;52.136;5.424;2023-01-15T07:54:48;99950.31;;;4.42;94.61
68580;BME280;55555;52.136;5.424;2023-01-15T07:57:19;99950.31;;;4.42;95.94
68580;BME280;55555;52.136;5.424;2023-01-15T07:59:48;99948.41;;;4.48;95.19
68580;BME280;55555;52.136;5.424;2023-01-15T08:02:15;99948.47;;;4.45;94.88
68580;BME280;55555;52.136;5.424;2023-01-15T08:04:42;99941.47;;;4.44;95.56
68580;BME280;55555;52.136;5.424;2023-01-15T08:07:10;99954.75;;;4.39;96.02
68580;BME280;55555;52.136;5.424;2023-01-15T08:09:38;99951.06;;;4.47;95.07
68580;BME280;55555;52.136;5.424;2023-01-15T08:12:05;99954.59;;;4.46;93.52
68580;BME280;55555;52.136;5.424;2023-01-15T08:14:51;99951.94;;;4.47;94.42
68580;BME280;55555;52.136;5.424;2023-01-15T08:17:38;99954.53;;;4.49;95.55
68580;BME280;55555;52.136;5.424;2023-01-15T08:20:18;99956.28;;;4.50;95.18
68580;BME280;55555;52.136;5.424;2023-01-15T08:22:51;99958.88;;;4.51;94.46
68580;BME280;55555;52.136;5.424;2023-01-15T08:25:20;99965.75;;;4.57;94.50
68580;BME280;55555;52.136;5.424;2023-01-15T08:27:49;99950.03;;;4.54;95.42
68580;BME280;55555;52.136;5.424;2023-01-15T08:30:22;99961.31;;;4.59;94.32
68580;BME280;55555;52.136;5.424;2023-01-15T08:32:50;99949.78;;;4.64;94.69
68580;BME280;55555;52.136;5.424;2023-01-15T08:35:18;99955.03;;;4.64;94.92
68580;BME280;55555;52.136;5.424;2023-01-15T08:37:45;99958.38;;;4.71;92.60
68580;BME280;55555;52.136;5.424;2023-01-15T08:40:12;99946.81;;;4.76;93.22
68580;BME280;55555;52.136;5.424;2023-01-15T08:42:39;99939.63;;;4.83;92.06
68580;BME280;55555;52.136;5.424;2023-01-15T08:45:08;99943.13;;;4.84;93.08
68580;BME280;55555;52.136;5.424;2023-01-15T08:47:36;99946.44;;;4.92;91.86
68580;BME280;55555;52.136;5.424;2023-01-15T08:50:07;99929.53;;;4.99;93.38
68580;BME280;55555;52.136;5.424;2023-01-15T08:52:36;99933.63;;;5.10;91.14
68580;BME280;55555;52.136;5.424;2023-01-15T08:55:04;99931.13;;;5.06;93.24
68580;BME280;55555;52.136;5.424;2023-01-15T08:57:32;99931.91;;;5.09;92.54
68580;BME280;55555;52.136;5.424;2023-01-15T08:59:59;99945.97;;;5.08;93.49
68580;BME280;55555;52.136;5.424;2023-01-15T09:02:27;99938.78;;;5.15;94.58
68580;BME280;55555;52.136;5.424;2023-01-15T09:04:55;99937.72;;;5.22;94.04
68580;BME280;55555;52.136;5.424;2023-01-15T09:07:22;99936.78;;;5.25;93.71
68580;BME280;55555;52.136;5.424;2023-01-15T09:09:49;99940.03;;;5.34;91.91
68580;BME280;55555;52.136;5.424;2023-01-15T09:12:16;99943.47;;;5.36;94.81
68580;BME280;55555;52.136;5.424;2023-01-15T09:14:44;99958.38;;;5.39;94.02
68580;BME280;55555;52.136;5.424;2023-01-15T09:17:27;99952.03;;;5.44;91.99
68580;BME280;55555;52.136;5.424;2023-01-15T09:19:54;99948.41;;;5.48;93.12
68580;BME280;55555;52.136;5.424;2023-01-15T09:22:21;99941.34;;;5.50;93.66
68580;BME280;55555;52.136;5.424;2023-01-15T09:24:48;99945.59;;;5.55;94.44
68580;BME280;55555;52.136;5.424;2023-01-15T09:27:16;99950.59;;;5.64;91.61
68580;BME280;55555;52.136;5.424;2023-01-15T09:29:43;99941.66;;;5.69;93.76
68580;BME280;55555;52.136;5.424;2023-01-15T09:32:10;99947.53;;;5.79;92.29
68580;BME280;55555;52.136;5.424;2023-01-15T09:34:37;99934.88;;;5.92;94.33
68580;BME280;55555;52.136;5.424;2023-01-15T09:37:04;99947.84;;;5.99;92.13
68580;BME280;55555;52.136;5.424;2023-01-15T09:39:31;99937.00;;;6.08;94.23
68580;BME280;55555;52.136;5.424;2023-01-15T09:42:17;99945.50;;;6.18;93.58
68580;BME280;55555;52.136;5.424;2023-01-15T09:48:04;99939.88;;;6.29;91.16
68580;BME280;55555;52.136;5.424;2023-01-15T09:50:58;99939.47;;;6.42;91.22
68580;BME280;55555;52.136;5.424;2023-01-15T09:53:47;99930.94;;;6.60;92.55
68580;BME280;55555;52.136;5.424;2023-01-15T09:56:33;99948.81;;;6.80;90.27
68580;BME280;55555;52.136;5.424;2023-01-15T09:59:13;99948.38;;;6.92;91.76
68580;BME280;55555;52.136;5.424;2023-01-15T10:01:47;99944.16;;;6.87;91.25
68580;BME280;55555;52.136;5.424;2023-01-15T10:07:10;99943.47;;;7.07;89.72
68580;BME280;55555;52.136;5.424;2023-01-15T10:10:06;99934.66;;;7.32;92.09
68580;BME280;55555;52.136;5.424;2023-01-15T10:12:44;99934.28;;;7.66;89.74
68580;BME280;55555;52.136;5.424;2023-01-15T10:17:57;99931.97;;;7.81;89.79
68580;BME280;55555;52.136;5.424;2023-01-15T10:23:35;99934.44;;;8.54;87.85
68580;BME280;55555;52.136;5.424;2023-01-15T10:32:02;99945.75;;;9.62;88.38
68580;BME280;55555;52.136;5.424;2023-01-15T10:35:14;99926.56;;;9.74;83.93
68580;BME280;55555;52.136;5.424;2023-01-15T10:43:47;99934.34;;;8.77;82.46
68580;BME280;55555;52.136;5.424;2023-01-15T10:46:24;99944.03;;;8.56;83.61
68580;BME280;55555;52.136;5.424;2023-01-15T10:48:56;99956.25;;;8.38;85.49
68580;BME280;55555;52.136;5.424;2023-01-15T10:51:52;99942.41;;;8.75;84.38
68580;BME280;55555;52.136;5.424;2023-01-15T10:54:28;99944.31;;;8.72;85.27
68580;BME280;55555;52.136;5.424;2023-01-15T11:00:36;99945.53;;;8.41;87.53
68580;BME280;55555;52.136;5.424;2023-01-15T11:03:09;99956.03;;;8.21;84.04
68580;BME280;55555;52.136;5.424;2023-01-15T11:05:41;99954.59;;;8.13;86.17
68580;BME280;55555;52.136;5.424;2023-01-15T11:08:25;99957.31;;;8.11;86.65
68580;BME280;55555;52.136;5.424;2023-01-15T11:11:22;99952.59;;;7.96;87.78
68580;BME280;55555;52.136;5.424;2023-01-15T11:17:23;99953.94;;;7.59;84.87
68580;BME280;55555;52.136;5.424;2023-01-15T11:20:32;99954.22;;;7.52;86.26
68580;BME280;55555;52.136;5.424;2023-01-15T11:23:09;99943.69;;;7.50;87.06
68580;BME280;55555;52.136;5.424;2023-01-15T11:25:39;99950.19;;;7.42;85.48
68580;BME280;55555;52.136;5.424;2023-01-15T11:28:14;99947.06;;;7.30;86.31
68580;BME280;55555;52.136;5.424;2023-01-15T11:30:51;99937.34;;;7.31;86.39
68580;BME280;55555;52.136;5.424;2023-01-15T11:33:25;99950.38;;;7.36;88.20
68580;BME280;55555;52.136;5.424;2023-01-15T11:35:58;99963.91;;;7.28;85.19
68580;BME280;55555;52.136;5.424;2023-01-15T11:38:28;99964.00;;;7.25;86.69
68580;BME280;55555;52.136;5.424;2023-01-15T11:41:01;99977.19;;;7.26;87.82
68580;BME280;55555;52.136;5.424;2023-01-15T11:43:30;99977.13;;;7.28;87.33
68580;BME280;55555;52.136;5.424;2023-01-15T11:46:30;99956.13;;;7.23;88.59
68580;BME280;55555;52.136;5.424;2023-01-15T11:49:18;99973.94;;;7.18;87.47
68580;BME280;55555;52.136;5.424;2023-01-15T11:52:07;99971.47;;;7.14;88.36
68580;BME280;55555;52.136;5.424;2023-01-15T11:54:44;99976.13;;;7.06;87.88
68580;BME280;55555;52.136;5.424;2023-01-15T11:57:26;99964.84;;;7.01;86.84
68580;BME280;55555;52.136;5.424;2023-01-15T11:59:56;99971.66;;;7.08;87.67
68580;BME280;55555;52.136;5.424;2023-01-15T12:02:33;99978.59;;;7.12;87.75
68580;BME280;55555;52.136;5.424;2023-01-15T12:05:16;99960.88;;;7.14;89.49
68580;BME280;55555;52.136;5.424;2023-01-15T12:07:47;99969.75;;;7.13;90.58
68580;BME280;55555;52.136;5.424;2023-01-15T12:10:18;99952.00;;;7.15;89.46
68580;BME280;55555;52.136;5.424;2023-01-15T12:13:24;99959.25;;;7.10;89.36
68580;BME280;55555;52.136;5.424;2023-01-15T12:16:29;99946.13;;;7.07;89.62
68580;BME280;55555;52.136;5.424;2023-01-15T12:36:02;99964.97;;;6.43;95.10
68580;BME280;55555;52.136;5.424;2023-01-15T12:38:59;99969.25;;;6.47;95.49
68580;BME280;55555;52.136;5.424;2023-01-15T12:41:32;99968.78;;;6.35;95.54
68580;BME280;55555;52.136;5.424;2023-01-15T12:44:45;99958.22;;;6.35;97.10
68580;BME280;55555;52.136;5.424;2023-01-15T12:50:56;99968.84;;;6.32;97.40
68580;BME280;55555;52.136;5.424;2023-01-15T12:53:42;99980.41;;;6.28;96.76
68580;BME280;55555;52.136;5.424;2023-01-15T13:01:57;99968.28;;;6.22;98.46
68580;BME280;55555;52.136;5.424;2023-01-15T13:04:51;99974.56;;;6.18;97.05
68580;BME280;55555;52.136;5.424;2023-01-15T13:07:41;99968.41;;;6.17;97.49
68580;BME280;55555;52.136;5.424;2023-01-15T13:10:20;99973.59;;;6.20;96.91
68580;BME280;55555;52.136;5.424;2023-01-15T13:12:52;99968.28;;;6.22;98.50
68580;BME280;55555;52.136;5.424;2023-01-15T13:15:26;99969.44;;;6.13;96.97
68580;BME280;55555;52.136;5.424;2023-01-15T13:18:10;99972.03;;;6.15;96.71
68580;BME280;55555;52.136;5.424;2023-01-15T13:20:54;99957.06;;;6.15;97.87
68580;BME280;55555;52.136;5.424;2023-01-15T13:26:26;99977.31;;;6.15;98.10
68580;BME280;55555;52.136;5.424;2023-01-15T13:29:43;99980.75;;;6.17;97.26
68580;BME280;55555;52.136;5.424;2023-01-15T13:32:42;99980.66;;;6.20;97.83
68580;BME280;55555;52.136;5.424;2023-01-15T13:35:24;99980.91;;;6.12;97.38
68580;BME280;55555;52.136;5.424;2023-01-15T13:37:59;99984.31;;;6.16;97.59
68580;BME280;55555;52.136;5.424;2023-01-15T13:40:38;99963.28;;;6.13;97.56
68580;BME280;55555;52.136;5.424;2023-01-15T13:43:08;99982.63;;;6.13;96.57
68580;BME280;55555;52.136;5.424;2023-01-15T13:45:58;99983.31;;;6.20;97.63
68580;BME280;55555;52.136;5.424;2023-01-15T13:48:50;99978.94;;;6.19;96.42
68580;BME280;55555;52.136;5.424;2023-01-15T13:54:02;99995.59;;;6.21;97.70
68580;BME280;55555;52.136;5.424;2023-01-15T13:56:32;100007.00;;;6.23;97.41
68580;BME280;55555;52.136;5.424;2023-01-15T13:59:05;99999.94;;;6.23;97.71
68580;BME280;55555;52.136;5.424;2023-01-15T14:02:36;99993.81;;;6.21;97.66
68580;BME280;55555;52.136;5.424;2023-01-15T14:07:57;100010.63;;;6.19;97.84
68580;BME280;55555;52.136;5.424;2023-01-15T14:13:28;100008.97;;;6.16;97.73
68580;BME280;55555;52.136;5.424;2023-01-15T14:16:50;100005.25;;;6.22;98.86
68580;BME280;55555;52.136;5.424;2023-01-15T14:23:26;100007.22;;;6.15;98.65
68580;BME280;55555;52.136;5.424;2023-01-15T14:26:19;100016.19;;;6.10;98.48
68580;BME280;55555;52.136;5.424;2023-01-15T14:35:18;100021.63;;;6.05;97.98
68580;BME280;55555;52.136;5.424;2023-01-15T14:37:57;100012.19;;;5.95;97.77
68580;BME280;55555;52.136;5.424;2023-01-15T14:40:31;100020.31;;;5.89;98.31
68580;BME280;55555;52.136;5.424;2023-01-15T14:43:02;100028.16;;;5.92;98.13
68580;BME280;55555;52.136;5.424;2023-01-15T14:45:43;100037.91;;;5.89;98.66
68580;BME280;55555;52.136;5.424;2023-01-15T14:48:33;100040.56;;;5.89;99.43
68580;BME280;55555;52.136;5.424;2023-01-15T14:51:12;100051.13;;;5.87;99.42
68580;BME280;55555;52.136;5.424;2023-01-15T14:53:51;100036.06;;;5.92;99.13
68580;BME280;55555;52.136;5.424;2023-01-15T14:56:30;100043.94;;;5.94;100.00
68580;BME280;55555;52.136;5.424;2023-01-15T15:01:49;100049.13;;;5.97;99.36
68580;BME280;55555;52.136;5.424;2023-01-15T15:07:15;100057.03;;;5.97;99.21
68580;BME280;55555;52.136;5.424;2023-01-15T15:09:53;100049.94;;;5.99;99.81
68580;BME280;55555;52.136;5.424;2023-01-15T15:15:47;100061.38;;;5.99;99.19
68580;BME280;55555;52.136;5.424;2023-01-15T15:18:26;100067.56;;;5.98;99.37
68580;BME280;55555;52.136;5.424;2023-01-15T15:23:37;100062.22;;;6.01;100.00
68580;BME280;55555;52.136;5.424;2023-01-15T15:26:26;100060.47;;;6.00;100.00
68580;BME280;55555;52.136;5.424;2023-01-15T15:29:02;100057.91;;;5.97;100.00
68580;BME280;55555;52.136;5.424;2023-01-15T15:34:30;100069.56;;;5.90;100.00
68580;BME280;55555;52.136;5.424;2023-01-15T15:37:01;100066.97;;;5.87;100.00
68580;BME280;55555;52.136;5.424;2023-01-15T15:39:52;100067.81;;;5.89;100.00
68580;BME280;55555;52.136;5.424;2023-01-15T15:42:38;100070.53;;;5.84;100.00
68580;BME280;55555;52.136;5.424;2023-01-15T15:45:30;100086.38;;;5.84;100.00
68580;BME280;55555;52.136;5.424;2023-01-15T15:51:36;100085.59;;;5.82;100.00